sensor_id;sensor_type;location;lat;lon;timestamp;P1;durP1;ratioP1;P2;durP2;ratioP2
48588;SDS011;34369;51.174;6.738;2022-08-21T00:01:40;22.48;;;20.67;;
48588;SDS011;34369;51.174;6.738;2022-08-21T00:04:12;23.13;;;21.05;;
48588;SDS011;34369;51.174;6.738;2022-08-21T00:06:44;23.13;;;21.13;;
48588;SDS011;34369;51.174;6.738;2022-08-21T00:09:17;23.63;;;21.35;;
48588;SDS011;34369;51.174;6.738;2022-08-21T00:11:51;23.20;;;21.25;;
48588;SDS011;34369;51.174;6.738;2022-08-21T00:14:24;23.10;;;21.08;;
48588;SDS011;34369;51.174;6.738;2022-08-21T00:16:56;24.00;;;21.90;;
48588;SDS011;34369;51.174;6.738;2022-08-21T00:19:28;23.08;;;21.02;;
48588;SDS011;34369;51.174;6.738;2022-08-21T00:22:00;24.02;;;21.73;;
48588;SDS011;34369;51.174;6.738;2022-08-21T00:24:32;23.33;;;21.23;;
48588;SDS011;34369;51.174;6.738;2022-08-21T00:27:06;24.48;;;22.38;;
48588;SDS011;34369;51.174;6.738;2022-08-21T00:29:38;23.88;;;21.88;;
48588;SDS011;34369;51.174;6.738;2022-08-21T00:32:11;24.08;;;21.95;;
48588;SDS011;34369;51.174;6.738;2022-08-21T00:34:43;24.73;;;22.38;;
48588;SDS011;34369;51.174;6.738;2022-08-21T00:37:15;23.85;;;21.80;;
48588;SDS011;34369;51.174;6.738;2022-08-21T00:39:47;23.55;;;21.65;;
48588;SDS011;34369;51.174;6.738;2022-08-21T00:42:20;23.00;;;20.90;;
48588;SDS011;34369;51.174;6.738;2022-08-21T00:44:52;23.02;;;20.95;;
48588;SDS011;34369;51.174;6.738;2022-08-21T00:47:25;22.80;;;20.92;;
48588;SDS011;34369;51.174;6.738;2022-08-21T00:49:57;23.25;;;21.25;;
48588;SDS011;34369;51.174;6.738;2022-08-21T00:52:30;23.15;;;21.25;;
48588;SDS011;34369;51.174;6.738;2022-08-21T00:55:04;24.23;;;22.13;;
48588;SDS011;34369;51.174;6.738;2022-08-21T00:57:42;23.13;;;21.25;;
48588;SDS011;34369;51.174;6.738;2022-08-21T01:00:19;24.92;;;22.70;;
48588;SDS011;34369;51.174;6.738;2022-08-21T01:02:54;24.15;;;22.23;;
48588;SDS011;34369;51.174;6.738;2022-08-21T01:05:26;24.33;;;22.00;;
48588;SDS011;34369;51.174;6.738;2022-08-21T01:07:58;24.02;;;22.13;;
48588;SDS011;34369;51.174;6.738;2022-08-21T01:10:31;24.17;;;22.08;;
48588;SDS011;34369;51.174;6.738;2022-08-21T01:13:05;24.33;;;22.42;;
48588;SDS011;34369;51.174;6.738;2022-08-21T01:15:40;24.00;;;22.20;;
48588;SDS011;34369;51.174;6.738;2022-08-21T01:18:16;25.42;;;23.38;;
48588;SDS011;34369;51.174;6.738;2022-08-21T01:21:07;24.90;;;22.83;;
48588;SDS011;34369;51.174;6.738;2022-08-21T01:23:43;26.17;;;23.67;;
48588;SDS011;34369;51.174;6.738;2022-08-21T01:26:20;23.90;;;22.00;;
48588;SDS011;34369;51.174;6.738;2022-08-21T01:28:57;23.42;;;21.52;;
48588;SDS011;34369;51.174;6.738;2022-08-21T01:31:34;24.02;;;21.92;;
48588;SDS011;34369;51.174;6.738;2022-08-21T01:34:07;26.30;;;24.20;;
48588;SDS011;34369;51.174;6.738;2022-08-21T01:36:42;25.05;;;23.10;;
48588;SDS011;34369;51.174;6.738;2022-08-21T01:39:16;23.75;;;21.75;;
48588;SDS011;34369;51.174;6.738;2022-08-21T01:41:49;25.63;;;23.35;;
48588;SDS011;34369;51.174;6.738;2022-08-21T01:44:21;24.23;;;22.38;;
48588;SDS011;34369;51.174;6.738;2022-08-21T01:46:54;24.77;;;22.58;;
48588;SDS011;34369;51.174;6.738;2022-08-21T01:49:29;23.50;;;21.67;;
48588;SDS011;34369;51.174;6.738;2022-08-21T01:52:03;24.45;;;22.38;;
48588;SDS011;34369;51.174;6.738;2022-08-21T01:54:36;25.27;;;23.10;;
48588;SDS011;34369;51.174;6.738;2022-08-21T01:57:09;27.20;;;25.10;;
48588;SDS011;34369;51.174;6.738;2022-08-21T01:59:42;25.40;;;23.30;;
48588;SDS011;34369;51.174;6.738;2022-08-21T02:02:14;28.10;;;24.15;;
48588;SDS011;34369;51.174;6.738;2022-08-21T02:04:47;25.17;;;23.15;;
48588;SDS011;34369;51.174;6.738;2022-08-21T02:07:20;25.15;;;22.95;;
48588;SDS011;34369;51.174;6.738;2022-08-21T02:09:52;26.42;;;24.23;;
48588;SDS011;34369;51.174;6.738;2022-08-21T02:12:24;26.88;;;24.58;;
48588;SDS011;34369;51.174;6.738;2022-08-21T02:14:56;26.52;;;24.42;;
48588;SDS011;34369;51.174;6.738;2022-08-21T02:17:36;26.42;;;24.05;;
48588;SDS011;34369;51.174;6.738;2022-08-21T02:20:11;29.85;;;26.75;;
48588;SDS011;34369;51.174;6.738;2022-08-21T02:22:50;26.88;;;24.63;;
48588;SDS011;34369;51.174;6.738;2022-08-21T02:25:23;26.67;;;24.48;;
48588;SDS011;34369;51.174;6.738;2022-08-21T02:27:58;27.00;;;24.70;;
48588;SDS011;34369;51.174;6.738;2022-08-21T02:30:33;28.05;;;25.90;;
48588;SDS011;34369;51.174;6.738;2022-08-21T02:33:10;26.23;;;23.88;;
48588;SDS011;34369;51.174;6.738;2022-08-21T02:35:44;27.50;;;24.95;;
48588;SDS011;34369;51.174;6.738;2022-08-21T02:38:20;25.83;;;23.73;;
48588;SDS011;34369;51.174;6.738;2022-08-21T02:40:57;26.13;;;24.02;;
48588;SDS011;34369;51.174;6.738;2022-08-21T02:43:30;25.92;;;23.90;;
48588;SDS011;34369;51.174;6.738;2022-08-21T02:46:03;25.90;;;23.90;;
48588;SDS011;34369;51.174;6.738;2022-08-21T02:48:37;26.85;;;24.55;;
48588;SDS011;34369;51.174;6.738;2022-08-21T02:51:12;27.67;;;25.33;;
48588;SDS011;34369;51.174;6.738;2022-08-21T02:53:49;25.38;;;23.35;;
48588;SDS011;34369;51.174;6.738;2022-08-21T02:56:21;25.58;;;23.60;;
48588;SDS011;34369;51.174;6.738;2022-08-21T02:58:54;26.35;;;24.35;;
48588;SDS011;34369;51.174;6.738;2022-08-21T03:01:29;26.92;;;24.73;;
48588;SDS011;34369;51.174;6.738;2022-08-21T03:04:04;26.30;;;24.30;;
48588;SDS011;34369;51.174;6.738;2022-08-21T03:06:36;27.95;;;25.65;;
48588;SDS011;34369;51.174;6.738;2022-08-21T03:09:10;27.05;;;24.75;;
48588;SDS011;34369;51.174;6.738;2022-08-21T03:11:43;25.52;;;23.42;;
48588;SDS011;34369;51.174;6.738;2022-08-21T03:14:15;26.58;;;24.48;;
48588;SDS011;34369;51.174;6.738;2022-08-21T03:16:50;27.23;;;25.02;;
48588;SDS011;34369;51.174;6.738;2022-08-21T03:19:22;27.50;;;25.40;;
48588;SDS011;34369;51.174;6.738;2022-08-21T03:21:55;25.77;;;23.87;;
48588;SDS011;34369;51.174;6.738;2022-08-21T03:24:29;27.83;;;25.63;;
48588;SDS011;34369;51.174;6.738;2022-08-21T03:27:01;29.47;;;27.27;;
48588;SDS011;34369;51.174;6.738;2022-08-21T03:29:33;26.33;;;24.23;;
48588;SDS011;34369;51.174;6.738;2022-08-21T03:32:06;27.52;;;25.33;;
48588;SDS011;34369;51.174;6.738;2022-08-21T03:34:39;28.33;;;26.07;;
48588;SDS011;34369;51.174;6.738;2022-08-21T03:37:13;27.90;;;25.57;;
48588;SDS011;34369;51.174;6.738;2022-08-21T03:39:49;27.40;;;25.13;;
48588;SDS011;34369;51.174;6.738;2022-08-21T03:42:21;28.17;;;25.97;;
48588;SDS011;34369;51.174;6.738;2022-08-21T03:44:54;27.15;;;25.05;;
48588;SDS011;34369;51.174;6.738;2022-08-21T03:47:26;27.27;;;25.02;;
48588;SDS011;34369;51.174;6.738;2022-08-21T03:49:59;27.33;;;25.15;;
48588;SDS011;34369;51.174;6.738;2022-08-21T03:52:32;28.92;;;26.65;;
48588;SDS011;34369;51.174;6.738;2022-08-21T03:55:06;29.63;;;27.33;;
48588;SDS011;34369;51.174;6.738;2022-08-21T03:57:39;27.85;;;25.65;;
48588;SDS011;34369;51.174;6.738;2022-08-21T04:00:12;26.80;;;24.77;;
48588;SDS011;34369;51.174;6.738;2022-08-21T04:02:47;26.92;;;24.92;;
48588;SDS011;34369;51.174;6.738;2022-08-21T04:05:19;25.13;;;23.33;;
48588;SDS011;34369;51.174;6.738;2022-08-21T04:07:58;26.35;;;24.35;;
48588;SDS011;34369;51.174;6.738;2022-08-21T04:10:35;28.40;;;26.10;;
48588;SDS011;34369;51.174;6.738;2022-08-21T04:13:09;28.95;;;26.75;;
48588;SDS011;34369;51.174;6.738;2022-08-21T04:15:42;29.80;;;27.20;;
48588;SDS011;34369;51.174;6.738;2022-08-21T04:18:14;29.05;;;26.75;;
48588;SDS011;34369;51.174;6.738;2022-08-21T04:20:47;28.60;;;26.30;;
48588;SDS011;34369;51.174;6.738;2022-08-21T04:23:22;28.58;;;26.38;;
48588;SDS011;34369;51.174;6.738;2022-08-21T04:25:56;27.88;;;25.67;;
48588;SDS011;34369;51.174;6.738;2022-08-21T04:28:28;28.00;;;25.60;;
48588;SDS011;34369;51.174;6.738;2022-08-21T04:31:01;29.08;;;26.80;;
48588;SDS011;34369;51.174;6.738;2022-08-21T04:33:33;29.80;;;27.40;;
48588;SDS011;34369;51.174;6.738;2022-08-21T04:36:05;30.60;;;28.07;;
48588;SDS011;34369;51.174;6.738;2022-08-21T04:38:38;28.73;;;26.52;;
48588;SDS011;34369;51.174;6.738;2022-08-21T04:41:11;30.30;;;27.70;;
48588;SDS011;34369;51.174;6.738;2022-08-21T04:43:43;27.73;;;25.58;;
48588;SDS011;34369;51.174;6.738;2022-08-21T04:46:15;28.20;;;26.00;;
48588;SDS011;34369;51.174;6.738;2022-08-21T04:48:49;29.85;;;27.48;;
48588;SDS011;34369;51.174;6.738;2022-08-21T04:51:22;28.58;;;26.25;;
48588;SDS011;34369;51.174;6.738;2022-08-21T04:53:57;29.13;;;26.83;;
48588;SDS011;34369;51.174;6.738;2022-08-21T04:56:35;30.52;;;28.02;;
48588;SDS011;34369;51.174;6.738;2022-08-21T04:59:13;31.85;;;29.27;;
48588;SDS011;34369;51.174;6.738;2022-08-21T05:01:49;27.88;;;25.48;;
48588;SDS011;34369;51.174;6.738;2022-08-21T05:04:22;30.50;;;28.00;;
48588;SDS011;34369;51.174;6.738;2022-08-21T05:06:58;29.40;;;26.88;;
48588;SDS011;34369;51.174;6.738;2022-08-21T05:09:33;30.65;;;28.25;;
48588;SDS011;34369;51.174;6.738;2022-08-21T05:12:07;30.30;;;27.63;;
48588;SDS011;34369;51.174;6.738;2022-08-21T05:14:40;30.73;;;28.00;;
48588;SDS011;34369;51.174;6.738;2022-08-21T05:17:12;30.05;;;27.52;;
48588;SDS011;34369;51.174;6.738;2022-08-21T05:19:45;30.48;;;27.85;;
48588;SDS011;34369;51.174;6.738;2022-08-21T05:22:19;30.05;;;27.55;;
48588;SDS011;34369;51.174;6.738;2022-08-21T05:24:52;28.60;;;26.20;;
48588;SDS011;34369;51.174;6.738;2022-08-21T05:27:25;30.38;;;27.83;;
48588;SDS011;34369;51.174;6.738;2022-08-21T05:29:59;29.23;;;26.92;;
48588;SDS011;34369;51.174;6.738;2022-08-21T05:32:31;29.10;;;26.67;;
48588;SDS011;34369;51.174;6.738;2022-08-21T05:35:04;28.63;;;26.13;;
48588;SDS011;34369;51.174;6.738;2022-08-21T05:37:38;29.58;;;27.08;;
48588;SDS011;34369;51.174;6.738;2022-08-21T05:40:10;29.77;;;27.23;;
48588;SDS011;34369;51.174;6.738;2022-08-21T05:42:44;30.73;;;27.58;;
48588;SDS011;34369;51.174;6.738;2022-08-21T05:45:16;29.83;;;27.42;;
48588;SDS011;34369;51.174;6.738;2022-08-21T05:47:49;30.23;;;27.60;;
48588;SDS011;34369;51.174;6.738;2022-08-21T05:50:21;29.35;;;26.75;;
48588;SDS011;34369;51.174;6.738;2022-08-21T05:52:53;29.23;;;26.80;;
48588;SDS011;34369;51.174;6.738;2022-08-21T05:55:26;28.48;;;25.95;;
48588;SDS011;34369;51.174;6.738;2022-08-21T05:58:00;29.55;;;26.73;;
48588;SDS011;34369;51.174;6.738;2022-08-21T06:00:32;28.38;;;26.08;;
48588;SDS011;34369;51.174;6.738;2022-08-21T06:03:09;28.38;;;25.83;;
48588;SDS011;34369;51.174;6.738;2022-08-21T06:05:43;28.30;;;26.08;;
48588;SDS011;34369;51.174;6.738;2022-08-21T06:08:21;28.85;;;26.10;;
48588;SDS011;34369;51.174;6.738;2022-08-21T06:10:55;28.17;;;25.77;;
48588;SDS011;34369;51.174;6.738;2022-08-21T06:13:30;27.63;;;25.33;;
48588;SDS011;34369;51.174;6.738;2022-08-21T06:16:05;27.75;;;25.23;;
48588;SDS011;34369;51.174;6.738;2022-08-21T06:18:39;27.35;;;24.95;;
48588;SDS011;34369;51.174;6.738;2022-08-21T06:21:12;25.67;;;23.38;;
48588;SDS011;34369;51.174;6.738;2022-08-21T06:23:44;25.25;;;23.08;;
48588;SDS011;34369;51.174;6.738;2022-08-21T06:26:17;25.67;;;23.48;;
48588;SDS011;34369;51.174;6.738;2022-08-21T06:28:51;26.55;;;23.98;;
48588;SDS011;34369;51.174;6.738;2022-08-21T06:31:25;26.80;;;24.58;;
48588;SDS011;34369;51.174;6.738;2022-08-21T06:33:58;25.95;;;23.08;;
48588;SDS011;34369;51.174;6.738;2022-08-21T06:36:30;25.08;;;22.80;;
48588;SDS011;34369;51.174;6.738;2022-08-21T06:39:02;23.55;;;21.55;;
48588;SDS011;34369;51.174;6.738;2022-08-21T06:41:35;24.08;;;21.98;;
48588;SDS011;34369;51.174;6.738;2022-08-21T06:44:09;23.73;;;21.63;;
48588;SDS011;34369;51.174;6.738;2022-08-21T06:46:40;24.10;;;22.05;;
48588;SDS011;34369;51.174;6.738;2022-08-21T06:49:13;24.63;;;22.35;;
48588;SDS011;34369;51.174;6.738;2022-08-21T06:51:45;23.90;;;21.83;;
48588;SDS011;34369;51.174;6.738;2022-08-21T06:54:17;23.88;;;21.50;;
48588;SDS011;34369;51.174;6.738;2022-08-21T06:56:49;24.90;;;22.60;;
48588;SDS011;34369;51.174;6.738;2022-08-21T06:59:22;24.13;;;21.90;;
48588;SDS011;34369;51.174;6.738;2022-08-21T07:01:54;23.85;;;21.77;;
48588;SDS011;34369;51.174;6.738;2022-08-21T07:04:26;23.02;;;20.88;;
48588;SDS011;34369;51.174;6.738;2022-08-21T07:06:58;25.00;;;22.33;;
48588;SDS011;34369;51.174;6.738;2022-08-21T07:09:30;23.25;;;21.25;;
48588;SDS011;34369;51.174;6.738;2022-08-21T07:12:03;22.27;;;20.48;;
48588;SDS011;34369;51.174;6.738;2022-08-21T07:14:36;22.58;;;20.58;;
48588;SDS011;34369;51.174;6.738;2022-08-21T07:17:09;24.02;;;21.10;;
48588;SDS011;34369;51.174;6.738;2022-08-21T07:19:41;22.17;;;20.08;;
48588;SDS011;34369;51.174;6.738;2022-08-21T07:22:13;21.67;;;19.63;;
48588;SDS011;34369;51.174;6.738;2022-08-21T07:24:48;21.73;;;19.73;;
48588;SDS011;34369;51.174;6.738;2022-08-21T07:27:21;20.42;;;18.63;;
48588;SDS011;34369;51.174;6.738;2022-08-21T07:29:54;20.83;;;18.90;;
48588;SDS011;34369;51.174;6.738;2022-08-21T07:32:27;20.23;;;18.30;;
48588;SDS011;34369;51.174;6.738;2022-08-21T07:34:59;20.88;;;18.98;;
48588;SDS011;34369;51.174;6.738;2022-08-21T07:37:31;20.60;;;18.67;;
48588;SDS011;34369;51.174;6.738;2022-08-21T07:40:04;20.00;;;18.20;;
48588;SDS011;34369;51.174;6.738;2022-08-21T07:42:39;18.92;;;17.13;;
48588;SDS011;34369;51.174;6.738;2022-08-21T07:45:13;19.15;;;17.25;;
48588;SDS011;34369;51.174;6.738;2022-08-21T07:47:46;18.90;;;17.30;;
48588;SDS011;34369;51.174;6.738;2022-08-21T07:50:18;18.70;;;17.00;;
48588;SDS011;34369;51.174;6.738;2022-08-21T07:52:51;18.15;;;16.45;;
48588;SDS011;34369;51.174;6.738;2022-08-21T07:55:23;18.88;;;16.85;;
48588;SDS011;34369;51.174;6.738;2022-08-21T07:57:56;17.25;;;15.55;;
48588;SDS011;34369;51.174;6.738;2022-08-21T08:00:30;16.92;;;15.15;;
48588;SDS011;34369;51.174;6.738;2022-08-21T08:03:02;15.73;;;14.13;;
48588;SDS011;34369;51.174;6.738;2022-08-21T08:05:34;15.98;;;14.10;;
48588;SDS011;34369;51.174;6.738;2022-08-21T08:08:07;15.52;;;13.63;;
48588;SDS011;34369;51.174;6.738;2022-08-21T08:10:39;14.77;;;13.35;;
48588;SDS011;34369;51.174;6.738;2022-08-21T08:13:11;14.90;;;13.45;;
48588;SDS011;34369;51.174;6.738;2022-08-21T08:15:45;14.88;;;13.38;;
48588;SDS011;34369;51.174;6.738;2022-08-21T08:18:17;14.82;;;13.32;;
48588;SDS011;34369;51.174;6.738;2022-08-21T08:20:49;14.27;;;12.98;;
48588;SDS011;34369;51.174;6.738;2022-08-21T08:23:21;14.18;;;12.80;;
48588;SDS011;34369;51.174;6.738;2022-08-21T08:25:53;14.25;;;12.80;;
48588;SDS011;34369;51.174;6.738;2022-08-21T08:28:25;14.20;;;12.70;;
48588;SDS011;34369;51.174;6.738;2022-08-21T08:30:59;14.43;;;12.90;;
48588;SDS011;34369;51.174;6.738;2022-08-21T08:33:32;13.95;;;12.57;;
48588;SDS011;34369;51.174;6.738;2022-08-21T08:36:04;13.60;;;12.40;;
48588;SDS011;34369;51.174;6.738;2022-08-21T08:38:40;14.15;;;12.73;;
48588;SDS011;34369;51.174;6.738;2022-08-21T08:41:13;13.60;;;12.20;;
48588;SDS011;34369;51.174;6.738;2022-08-21T08:43:49;13.15;;;11.85;;
48588;SDS011;34369;51.174;6.738;2022-08-21T08:46:29;13.60;;;12.25;;
48588;SDS011;34369;51.174;6.738;2022-08-21T08:49:09;13.30;;;12.00;;
48588;SDS011;34369;51.174;6.738;2022-08-21T08:51:47;12.60;;;11.40;;
48588;SDS011;34369;51.174;6.738;2022-08-21T08:54:26;13.85;;;12.43;;
48588;SDS011;34369;51.174;6.738;2022-08-21T08:57:03;13.10;;;11.80;;
48588;SDS011;34369;51.174;6.738;2022-08-21T08:59:42;13.60;;;12.18;;
48588;SDS011;34369;51.174;6.738;2022-08-21T09:02:18;12.52;;;11.23;;
48588;SDS011;34369;51.174;6.738;2022-08-21T09:04:53;13.80;;;12.40;;
48588;SDS011;34369;51.174;6.738;2022-08-21T09:07:28;13.27;;;12.07;;
48588;SDS011;34369;51.174;6.738;2022-08-21T09:10:12;13.63;;;12.32;;
48588;SDS011;34369;51.174;6.738;2022-08-21T09:12:50;13.60;;;12.20;;
48588;SDS011;34369;51.174;6.738;2022-08-21T09:15:38;13.80;;;12.40;;
48588;SDS011;34369;51.174;6.738;2022-08-21T09:18:28;13.38;;;11.98;;
48588;SDS011;34369;51.174;6.738;2022-08-21T09:21:12;13.98;;;12.68;;
48588;SDS011;34369;51.174;6.738;2022-08-21T09:23:52;13.60;;;12.30;;
48588;SDS011;34369;51.174;6.738;2022-08-21T09:26:36;13.80;;;12.38;;
48588;SDS011;34369;51.174;6.738;2022-08-21T09:29:19;13.35;;;11.95;;
48588;SDS011;34369;51.174;6.738;2022-08-21T09:31:55;13.50;;;12.10;;
48588;SDS011;34369;51.174;6.738;2022-08-21T09:34:29;13.25;;;11.95;;
48588;SDS011;34369;51.174;6.738;2022-08-21T09:37:02;14.32;;;12.90;;
48588;SDS011;34369;51.174;6.738;2022-08-21T09:39:37;13.43;;;12.02;;
48588;SDS011;34369;51.174;6.738;2022-08-21T09:42:11;13.85;;;12.38;;
48588;SDS011;34369;51.174;6.738;2022-08-21T09:45:05;14.98;;;12.55;;
48588;SDS011;34369;51.174;6.738;2022-08-21T09:47:44;14.75;;;13.15;;
48588;SDS011;34369;51.174;6.738;2022-08-21T09:50:19;14.27;;;12.60;;
48588;SDS011;34369;51.174;6.738;2022-08-21T09:52:54;14.15;;;12.50;;
48588;SDS011;34369;51.174;6.738;2022-08-21T09:58:29;14.18;;;12.77;;
48588;SDS011;34369;51.174;6.738;2022-08-21T10:01:04;15.52;;;13.10;;
48588;SDS011;34369;51.174;6.738;2022-08-21T10:03:38;14.05;;;12.40;;
48588;SDS011;34369;51.174;6.738;2022-08-21T10:06:20;14.48;;;12.95;;
48588;SDS011;34369;51.174;6.738;2022-08-21T10:09:03;15.43;;;13.93;;
48588;SDS011;34369;51.174;6.738;2022-08-21T10:11:37;14.70;;;13.20;;
48588;SDS011;34369;51.174;6.738;2022-08-21T10:14:13;14.10;;;12.75;;
48588;SDS011;34369;51.174;6.738;2022-08-21T10:16:56;14.23;;;12.85;;
48588;SDS011;34369;51.174;6.738;2022-08-21T10:19:36;15.88;;;12.88;;
48588;SDS011;34369;51.174;6.738;2022-08-21T10:22:19;14.75;;;13.35;;
48588;SDS011;34369;51.174;6.738;2022-08-21T10:25:09;14.30;;;12.90;;
48588;SDS011;34369;51.174;6.738;2022-08-21T10:27:52;14.95;;;13.40;;
48588;SDS011;34369;51.174;6.738;2022-08-21T10:30:35;14.75;;;13.25;;
48588;SDS011;34369;51.174;6.738;2022-08-21T10:33:20;14.68;;;13.18;;
48588;SDS011;34369;51.174;6.738;2022-08-21T10:36:08;15.23;;;13.82;;
48588;SDS011;34369;51.174;6.738;2022-08-21T10:38:59;15.27;;;13.80;;
48588;SDS011;34369;51.174;6.738;2022-08-21T10:44:30;15.40;;;13.88;;
48588;SDS011;34369;51.174;6.738;2022-08-21T10:47:10;15.50;;;14.10;;
48588;SDS011;34369;51.174;6.738;2022-08-21T10:49:53;15.18;;;13.68;;
48588;SDS011;34369;51.174;6.738;2022-08-21T10:52:45;14.93;;;13.52;;
48588;SDS011;34369;51.174;6.738;2022-08-21T10:55:50;15.00;;;13.50;;
48588;SDS011;34369;51.174;6.738;2022-08-21T10:58:28;15.10;;;13.60;;
48588;SDS011;34369;51.174;6.738;2022-08-21T11:01:07;14.38;;;12.98;;
48588;SDS011;34369;51.174;6.738;2022-08-21T11:03:46;14.60;;;13.20;;
48588;SDS011;34369;51.174;6.738;2022-08-21T11:06:25;14.77;;;12.88;;
48588;SDS011;34369;51.174;6.738;2022-08-21T11:09:04;14.18;;;12.70;;
48588;SDS011;34369;51.174;6.738;2022-08-21T11:11:46;15.40;;;13.20;;
48588;SDS011;34369;51.174;6.738;2022-08-21T11:14:36;15.02;;;13.20;;
48588;SDS011;34369;51.174;6.738;2022-08-21T11:17:27;14.40;;;13.00;;
48588;SDS011;34369;51.174;6.738;2022-08-21T11:20:10;15.40;;;13.90;;
48588;SDS011;34369;51.174;6.738;2022-08-21T11:22:53;14.50;;;13.10;;
48588;SDS011;34369;51.174;6.738;2022-08-21T11:25:31;14.38;;;12.93;;
48588;SDS011;34369;51.174;6.738;2022-08-21T11:28:09;15.07;;;13.50;;
48588;SDS011;34369;51.174;6.738;2022-08-21T11:30:52;14.85;;;12.95;;
48588;SDS011;34369;51.174;6.738;2022-08-21T11:36:21;14.13;;;12.77;;
48588;SDS011;34369;51.174;6.738;2022-08-21T11:39:12;14.50;;;13.10;;
48588;SDS011;34369;51.174;6.738;2022-08-21T11:41:56;13.82;;;12.52;;
48588;SDS011;34369;51.174;6.738;2022-08-21T11:44:43;14.07;;;12.70;;
48588;SDS011;34369;51.174;6.738;2022-08-21T11:47:25;13.85;;;12.45;;
48588;SDS011;34369;51.174;6.738;2022-08-21T11:50:17;13.38;;;12.07;;
48588;SDS011;34369;51.174;6.738;2022-08-21T11:52:53;13.15;;;11.77;;
48588;SDS011;34369;51.174;6.738;2022-08-21T11:55:32;12.95;;;11.65;;
48588;SDS011;34369;51.174;6.738;2022-08-21T11:58:11;13.27;;;11.77;;
48588;SDS011;34369;51.174;6.738;2022-08-21T12:00:53;13.20;;;11.60;;
48588;SDS011;34369;51.174;6.738;2022-08-21T12:03:29;12.55;;;11.27;;
48588;SDS011;34369;51.174;6.738;2022-08-21T12:06:05;13.35;;;11.48;;
48588;SDS011;34369;51.174;6.738;2022-08-21T12:08:40;12.50;;;11.23;;
48588;SDS011;34369;51.174;6.738;2022-08-21T12:13:56;13.02;;;11.60;;
48588;SDS011;34369;51.174;6.738;2022-08-21T12:16:45;13.55;;;11.90;;
48588;SDS011;34369;51.174;6.738;2022-08-21T12:19:28;13.38;;;11.80;;
48588;SDS011;34369;51.174;6.738;2022-08-21T12:22:09;13.40;;;12.00;;
48588;SDS011;34369;51.174;6.738;2022-08-21T12:24:44;13.20;;;11.80;;
48588;SDS011;34369;51.174;6.738;2022-08-21T12:27:22;13.23;;;11.85;;
48588;SDS011;34369;51.174;6.738;2022-08-21T12:30:01;12.68;;;11.48;;
48588;SDS011;34369;51.174;6.738;2022-08-21T12:32:56;14.85;;;12.20;;
48588;SDS011;34369;51.174;6.738;2022-08-21T12:35:31;12.90;;;11.60;;
48588;SDS011;34369;51.174;6.738;2022-08-21T12:38:15;12.98;;;11.68;;
48588;SDS011;34369;51.174;6.738;2022-08-21T12:40:52;12.90;;;11.60;;
48588;SDS011;34369;51.174;6.738;2022-08-21T12:43:29;12.75;;;11.43;;
48588;SDS011;34369;51.174;6.738;2022-08-21T12:46:06;13.20;;;11.80;;
48588;SDS011;34369;51.174;6.738;2022-08-21T12:48:49;13.15;;;11.70;;
48588;SDS011;34369;51.174;6.738;2022-08-21T12:51:29;13.18;;;11.43;;
48588;SDS011;34369;51.174;6.738;2022-08-21T12:54:07;12.77;;;11.48;;
48588;SDS011;34369;51.174;6.738;2022-08-21T12:56:40;12.88;;;11.57;;
48588;SDS011;34369;51.174;6.738;2022-08-21T12:59:12;13.50;;;12.10;;
48588;SDS011;34369;51.174;6.738;2022-08-21T13:01:45;12.90;;;11.60;;
48588;SDS011;34369;51.174;6.738;2022-08-21T13:04:25;13.50;;;12.00;;
48588;SDS011;34369;51.174;6.738;2022-08-21T13:07:08;13.45;;;12.15;;
48588;SDS011;34369;51.174;6.738;2022-08-21T13:09:46;13.25;;;11.95;;
48588;SDS011;34369;51.174;6.738;2022-08-21T13:12:23;14.13;;;11.27;;
48588;SDS011;34369;51.174;6.738;2022-08-21T13:14:58;13.18;;;11.77;;
48588;SDS011;34369;51.174;6.738;2022-08-21T13:17:34;13.32;;;12.02;;
48588;SDS011;34369;51.174;6.738;2022-08-21T13:20:19;13.48;;;12.27;;
48588;SDS011;34369;51.174;6.738;2022-08-21T13:22:54;13.00;;;11.70;;
48588;SDS011;34369;51.174;6.738;2022-08-21T13:25:28;13.05;;;11.70;;
48588;SDS011;34369;51.174;6.738;2022-08-21T13:28:06;13.20;;;11.80;;
48588;SDS011;34369;51.174;6.738;2022-08-21T13:30:42;13.50;;;11.82;;
48588;SDS011;34369;51.174;6.738;2022-08-21T13:33:17;12.82;;;11.52;;
48588;SDS011;34369;51.174;6.738;2022-08-21T13:38:44;13.57;;;12.27;;
48588;SDS011;34369;51.174;6.738;2022-08-21T13:41:20;14.33;;;12.83;;
48588;SDS011;34369;51.174;6.738;2022-08-21T13:43:56;13.40;;;12.10;;
48588;SDS011;34369;51.174;6.738;2022-08-21T13:46:31;13.60;;;12.30;;
48588;SDS011;34369;51.174;6.738;2022-08-21T13:49:06;13.38;;;11.98;;
48588;SDS011;34369;51.174;6.738;2022-08-21T13:51:42;13.52;;;12.13;;
48588;SDS011;34369;51.174;6.738;2022-08-21T13:54:20;14.85;;;12.32;;
48588;SDS011;34369;51.174;6.738;2022-08-21T13:56:59;13.90;;;12.45;;
48588;SDS011;34369;51.174;6.738;2022-08-21T13:59:32;13.55;;;12.25;;
48588;SDS011;34369;51.174;6.738;2022-08-21T14:02:08;14.15;;;12.77;;
48588;SDS011;34369;51.174;6.738;2022-08-21T14:04:50;14.13;;;12.70;;
48588;SDS011;34369;51.174;6.738;2022-08-21T14:07:29;13.85;;;12.38;;
48588;SDS011;34369;51.174;6.738;2022-08-21T14:10:06;14.57;;;13.23;;
48588;SDS011;34369;51.174;6.738;2022-08-21T14:12:46;14.43;;;12.48;;
48588;SDS011;34369;51.174;6.738;2022-08-21T14:15:25;13.70;;;12.40;;
48588;SDS011;34369;51.174;6.738;2022-08-21T14:18:06;13.90;;;12.60;;
48588;SDS011;34369;51.174;6.738;2022-08-21T14:20:45;13.63;;;12.23;;
48588;SDS011;34369;51.174;6.738;2022-08-21T14:23:24;14.35;;;12.90;;
48588;SDS011;34369;51.174;6.738;2022-08-21T14:26:00;13.70;;;12.40;;
48588;SDS011;34369;51.174;6.738;2022-08-21T14:28:38;13.43;;;12.18;;
48588;SDS011;34369;51.174;6.738;2022-08-21T14:31:15;13.63;;;12.32;;
48588;SDS011;34369;51.174;6.738;2022-08-21T14:34:03;13.68;;;12.38;;
48588;SDS011;34369;51.174;6.738;2022-08-21T14:36:40;13.88;;;12.60;;
48588;SDS011;34369;51.174;6.738;2022-08-21T14:39:25;13.35;;;12.05;;
48588;SDS011;34369;51.174;6.738;2022-08-21T14:41:58;13.68;;;12.38;;
48588;SDS011;34369;51.174;6.738;2022-08-21T14:44:31;14.40;;;12.90;;
48588;SDS011;34369;51.174;6.738;2022-08-21T14:47:07;14.27;;;12.77;;
48588;SDS011;34369;51.174;6.738;2022-08-21T14:49:42;13.93;;;12.60;;
48588;SDS011;34369;51.174;6.738;2022-08-21T14:52:14;13.93;;;12.52;;
48588;SDS011;34369;51.174;6.738;2022-08-21T14:54:49;14.20;;;12.90;;
48588;SDS011;34369;51.174;6.738;2022-08-21T14:57:21;14.23;;;12.25;;
48588;SDS011;34369;51.174;6.738;2022-08-21T14:59:57;14.23;;;12.77;;
48588;SDS011;34369;51.174;6.738;2022-08-21T15:02:33;14.00;;;12.60;;
48588;SDS011;34369;51.174;6.738;2022-08-21T15:05:06;13.50;;;12.10;;
48588;SDS011;34369;51.174;6.738;2022-08-21T15:07:39;13.85;;;12.55;;
48588;SDS011;34369;51.174;6.738;2022-08-21T15:10:16;13.27;;;11.87;;
48588;SDS011;34369;51.174;6.738;2022-08-21T15:12:50;13.55;;;12.25;;
48588;SDS011;34369;51.174;6.738;2022-08-21T15:15:22;13.93;;;12.52;;
48588;SDS011;34369;51.174;6.738;2022-08-21T15:17:54;14.00;;;12.50;;
48588;SDS011;34369;51.174;6.738;2022-08-21T15:23:48;14.23;;;12.80;;
48588;SDS011;34369;51.174;6.738;2022-08-21T15:26:24;13.77;;;12.38;;
48588;SDS011;34369;51.174;6.738;2022-08-21T15:28:57;13.70;;;12.40;;